createdAt,value
2019-02-28T00:00:17.957Z,37.47
2019-02-28T00:02:50.380Z,36.30
2019-02-28T00:05:21.136Z,34.97
2019-02-28T00:07:52.040Z,35.13
2019-02-28T00:10:22.918Z,34.87
2019-02-28T00:12:53.632Z,33.90
2019-02-28T00:15:24.415Z,32.03
2019-02-28T00:17:55.114Z,31.43
2019-02-28T00:20:25.992Z,32.47
2019-02-28T00:22:58.096Z,32.27
2019-02-28T00:25:28.844Z,35.47
2019-02-28T00:27:59.711Z,34.77
2019-02-28T00:30:30.660Z,35.83
2019-02-28T00:33:01.293Z,34.57
2019-02-28T00:35:32.156Z,33.03
2019-02-28T00:38:02.949Z,31.27
2019-02-28T00:40:34.679Z,31.67
2019-02-28T00:43:05.573Z,32.13
2019-02-28T00:45:37.849Z,32.37
2019-02-28T00:48:08.672Z,32.47
2019-02-28T00:50:39.511Z,33.07
2019-02-28T00:55:59.737Z,33.70
2019-02-28T00:58:30.341Z,40.00
2019-02-28T01:01:01.234Z,34.37
2019-02-28T01:03:31.976Z,34.43
2019-02-28T01:06:02.727Z,32.33
2019-02-28T01:11:22.501Z,33.30
2019-02-28T01:13:53.133Z,34.37
2019-02-28T01:16:23.925Z,35.57
2019-02-28T01:18:54.608Z,34.33
2019-02-28T01:21:25.435Z,32.33
2019-02-28T01:23:56.061Z,34.17
2019-02-28T01:26:26.944Z,35.27
2019-02-28T01:29:01.343Z,36.33
2019-02-28T01:31:31.048Z,35.57
2019-02-28T01:34:01.904Z,36.13
2019-02-28T01:36:32.840Z,38.03
2019-02-28T01:39:04.513Z,39.70
2019-02-28T01:41:37.092Z,40.17
2019-02-28T01:44:07.724Z,42.90
2019-02-28T01:46:38.348Z,40.07
2019-02-28T01:49:08.969Z,41.13
2019-02-28T01:51:39.652Z,39.40
2019-02-28T01:54:10.343Z,41.73
2019-02-28T01:56:41.398Z,40.47
2019-02-28T01:59:12.125Z,41.90
2019-02-28T02:01:42.909Z,42.30
2019-02-28T02:04:13.736Z,40.40
2019-02-28T02:06:44.532Z,39.53
2019-02-28T02:09:15.179Z,39.83
2019-02-28T02:11:46.270Z,36.20
2019-02-28T02:14:16.832Z,36.73
2019-02-28T02:16:47.528Z,36.97
2019-02-28T02:19:18.813Z,36.77
2019-02-28T02:21:50.960Z,36.97
2019-02-28T02:24:24.381Z,40.73
2019-02-28T02:26:54.036Z,40.93
2019-02-28T02:29:24.954Z,41.37
2019-02-28T02:31:55.557Z,40.10
2019-02-28T02:34:28.447Z,40.43
2019-02-28T02:36:59.098Z,42.47
2019-02-28T02:39:29.826Z,44.23
2019-02-28T02:42:00.656Z,41.93
2019-02-28T02:44:32.087Z,42.47
2019-02-28T02:47:02.751Z,41.20
2019-02-28T02:49:33.662Z,41.07
2019-02-28T02:52:04.428Z,41.47
2019-02-28T02:54:35.207Z,40.80
2019-02-28T02:57:06.272Z,39.97
2019-02-28T02:59:39.053Z,38.60
2019-02-28T03:02:09.134Z,40.70
2019-02-28T03:04:40.015Z,42.17
2019-02-28T03:07:10.819Z,38.43
2019-02-28T03:09:43.514Z,38.47
2019-02-28T03:12:13.967Z,39.03
2019-02-28T03:14:48.815Z,39.30
2019-02-28T03:17:16.754Z,40.40
2019-02-28T03:19:47.482Z,40.40
2019-02-28T03:25:07.308Z,40.47
2019-02-28T03:27:38.045Z,41.43
2019-02-28T03:30:11.034Z,42.53
2019-02-28T03:32:42.839Z,43.27
2019-02-28T03:35:13.809Z,44.40
2019-02-28T03:37:45.068Z,47.73
2019-02-28T03:43:05.565Z,45.13
2019-02-28T03:45:35.186Z,46.20
2019-02-28T03:48:02.900Z,43.77
2019-02-28T03:53:22.825Z,44.60
2019-02-28T03:55:53.324Z,43.47
2019-02-28T03:58:24.062Z,45.80
2019-02-28T04:00:54.650Z,45.30
2019-02-28T04:03:25.286Z,46.47
2019-02-28T04:06:03.337Z,45.83
2019-02-28T04:08:30.354Z,49.10
2019-02-28T04:11:00.202Z,50.50
2019-02-28T04:13:30.726Z,49.77
2019-02-28T04:16:08.476Z,48.40
2019-02-28T04:18:33.609Z,49.10
2019-02-28T04:21:04.172Z,47.40
2019-02-28T04:23:36.079Z,47.20
2019-02-28T04:26:06.737Z,47.43
2019-02-28T04:28:37.251Z,50.10
2019-02-28T04:31:07.743Z,49.27
2019-02-28T04:33:39.338Z,48.90
2019-02-28T04:36:09.903Z,48.97
2019-02-28T04:38:40.412Z,48.50
2019-02-28T04:41:10.969Z,49.60
2019-02-28T04:43:41.529Z,48.67
2019-02-28T04:46:13.584Z,45.93
2019-02-28T04:48:45.717Z,46.80
2019-02-28T04:51:16.239Z,44.77
2019-02-28T04:53:46.748Z,44.23
2019-02-28T04:56:17.305Z,42.93
2019-02-28T04:58:47.796Z,40.83
2019-02-28T05:01:18.284Z,42.07
2019-02-28T05:03:48.864Z,38.37
2019-02-28T05:06:21.177Z,39.37
2019-02-28T05:08:52.036Z,38.53
2019-02-28T05:11:22.580Z,40.57
2019-02-28T05:13:53.081Z,37.43
2019-02-28T05:16:23.621Z,35.27
2019-02-28T05:18:54.320Z,35.97
2019-02-28T05:21:25.168Z,36.37
2019-02-28T05:23:55.968Z,36.70
2019-02-28T05:26:27.066Z,33.80
2019-02-28T05:28:59.628Z,35.47
2019-02-28T05:31:30.284Z,35.77
2019-02-28T05:34:00.876Z,35.03
2019-02-28T05:36:31.394Z,34.67
2019-02-28T05:39:02.086Z,36.73
2019-02-28T05:41:36.224Z,33.30
2019-02-28T05:44:07.281Z,33.00
2019-02-28T05:46:38.068Z,32.30
2019-02-28T05:49:09.859Z,33.03
2019-02-28T05:51:40.594Z,32.60
2019-02-28T05:54:15.873Z,31.97
2019-02-28T05:56:43.644Z,33.33
2019-02-28T05:59:14.493Z,31.30
2019-02-28T06:01:47.053Z,34.20
2019-02-28T06:04:17.447Z,33.60
2019-02-28T06:06:48.241Z,32.33
2019-02-28T06:09:19.012Z,32.30
2019-02-28T06:11:49.787Z,31.40
2019-02-28T06:14:23.648Z,31.33
2019-02-28T06:16:52.915Z,30.07
2019-02-28T06:19:23.676Z,28.93
2019-02-28T06:21:56.417Z,30.13
2019-02-28T06:24:26.678Z,30.53
2019-02-28T06:26:57.402Z,30.47
2019-02-28T06:29:29.371Z,28.80
2019-02-28T06:32:00.496Z,27.57
2019-02-28T06:34:31.089Z,26.03
2019-02-28T06:37:03.732Z,26.93
2019-02-28T06:39:34.184Z,28.17
2019-02-28T06:42:04.695Z,26.80
2019-02-28T06:44:35.409Z,26.97
2019-02-28T06:49:48.521Z,27.10
2019-02-28T06:52:19.213Z,26.87
2019-02-28T06:54:49.957Z,27.50
2019-02-28T06:57:21.751Z,28.23
2019-02-28T06:59:52.729Z,29.03
2019-02-28T07:02:23.680Z,31.17
2019-02-28T07:04:54.459Z,31.40
2019-02-28T07:07:25.285Z,32.07
2019-02-28T07:09:55.905Z,33.93
2019-02-28T07:12:29.691Z,30.83
2019-02-28T07:14:58.945Z,31.07
2019-02-28T07:17:29.760Z,29.37
2019-02-28T07:20:02.050Z,30.33
2019-02-28T07:22:34.957Z,28.17
2019-02-28T07:25:06.002Z,29.03
2019-02-28T07:27:36.968Z,30.97
2019-02-28T07:30:10.199Z,30.03
2019-02-28T07:32:40.963Z,30.60
2019-02-28T07:35:11.474Z,31.37
2019-02-28T07:37:42.580Z,28.93
2019-02-28T07:40:16.088Z,29.77
2019-02-28T07:42:45.831Z,31.80
2019-02-28T07:45:16.759Z,31.13
2019-02-28T07:47:51.662Z,30.10
2019-02-28T07:50:19.803Z,29.73
2019-02-28T07:52:53.226Z,27.63
2019-02-28T07:55:27.219Z,29.47
2019-02-28T07:58:01.748Z,27.07
2019-02-28T08:00:34.582Z,26.40
2019-02-28T08:03:11.310Z,18.53
2019-02-28T08:05:43.796Z,16.83
2019-02-28T08:08:18.086Z,15.60
2019-02-28T08:10:52.825Z,14.77
2019-02-28T08:13:24.048Z,15.30
2019-02-28T08:15:56.909Z,14.13
2019-02-28T08:18:27.604Z,12.33
2019-02-28T08:20:58.599Z,13.37
2019-02-28T08:23:31.286Z,13.70
2019-02-28T08:26:03.032Z,13.23
2019-02-28T08:28:36.802Z,12.67
2019-02-28T08:31:06.706Z,10.93
2019-02-28T08:33:37.461Z,12.10
2019-02-28T08:36:11.604Z,9.87
2019-02-28T08:38:40.616Z,9.60
2019-02-28T08:41:11.131Z,9.40
2019-02-28T08:43:44.546Z,7.87
2019-02-28T08:46:15.158Z,8.33
2019-02-28T08:48:45.992Z,8.10
2019-02-28T08:51:16.604Z,7.23
2019-02-28T08:53:50.716Z,6.90
2019-02-28T08:59:11.743Z,6.50
2019-02-28T09:01:43.423Z,6.77
2019-02-28T09:04:12.401Z,6.40
2019-02-28T09:06:44.006Z,7.37
2019-02-28T09:09:14.761Z,8.03
2019-02-28T09:11:45.908Z,8.87
2019-02-28T09:14:17.830Z,7.27
2019-02-28T09:16:49.156Z,7.20
2019-02-28T09:19:19.692Z,7.47
2019-02-28T09:21:52.896Z,7.10
2019-02-28T09:24:22.395Z,7.40
2019-02-28T09:26:52.977Z,7.83
2019-02-28T09:29:23.548Z,8.10
2019-02-28T09:31:56.453Z,6.97
2019-02-28T09:34:26.992Z,8.77
2019-02-28T09:36:59.317Z,10.00
2019-02-28T09:39:29.797Z,8.10
2019-02-28T09:42:00.292Z,8.37
2019-02-28T09:44:31.725Z,7.70
2019-02-28T09:47:02.981Z,8.47
2019-02-28T09:52:08.398Z,5.43
2019-02-28T09:54:38.872Z,5.13
2019-02-28T09:57:09.322Z,4.87
2019-02-28T10:02:22.241Z,5.13
2019-02-28T10:04:52.749Z,4.20
2019-02-28T10:07:23.401Z,4.30
2019-02-28T10:09:55.408Z,3.93
2019-02-28T10:12:25.952Z,4.20
2019-02-28T10:14:56.528Z,4.30
2019-02-28T10:17:28.908Z,4.73
2019-02-28T10:19:59.536Z,4.13
2019-02-28T10:22:30.031Z,2.87
2019-02-28T10:25:03.563Z,3.03
2019-02-28T10:27:32.716Z,2.70
2019-02-28T10:30:03.325Z,2.47
2019-02-28T10:32:34.257Z,3.23
2019-02-28T10:35:06.084Z,2.97
2019-02-28T10:37:36.660Z,2.77
2019-02-28T10:40:09.358Z,2.30
2019-02-28T10:42:41.479Z,1.63
2019-02-28T10:45:12.709Z,3.03
2019-02-28T10:47:43.368Z,2.33
2019-02-28T10:50:16.386Z,3.37
2019-02-28T10:52:47.144Z,2.83
2019-02-28T10:55:19.497Z,3.27
2019-02-28T10:57:50.573Z,3.00
2019-02-28T11:00:29.339Z,3.13
2019-02-28T11:03:00.904Z,2.60
2019-02-28T11:05:32.493Z,2.87
2019-02-28T11:08:03.915Z,3.57
2019-02-28T11:10:36.833Z,2.57
2019-02-28T11:13:10.674Z,3.80
2019-02-28T11:15:47.914Z,4.27
2019-02-28T11:18:15.041Z,4.13
2019-02-28T11:20:45.849Z,4.97
2019-02-28T11:23:17.040Z,4.57
2019-02-28T11:25:47.973Z,4.90
2019-02-28T11:28:20.194Z,4.03
2019-02-28T11:30:50.924Z,4.37
2019-02-28T11:33:22.889Z,4.70
2019-02-28T11:35:57.894Z,5.03
2019-02-28T11:38:25.732Z,5.43
2019-02-28T11:40:57.520Z,4.27
2019-02-28T11:43:28.379Z,4.67
2019-02-28T11:46:00.543Z,3.93
2019-02-28T11:48:31.132Z,4.80
2019-02-28T11:51:01.717Z,3.77
2019-02-28T11:53:32.237Z,4.10
2019-02-28T11:58:44.643Z,3.73
2019-02-28T12:01:15.312Z,3.13
2019-02-28T12:03:45.937Z,3.13
2019-02-28T12:06:16.504Z,3.87
2019-02-28T12:08:47.038Z,3.50
2019-02-28T12:11:19.709Z,3.10
2019-02-28T12:13:51.703Z,2.20
2019-02-28T12:16:22.664Z,2.57
2019-02-28T12:18:53.146Z,3.53
2019-02-28T12:21:23.705Z,2.30
2019-02-28T12:23:57.001Z,2.67
2019-02-28T12:26:26.394Z,2.53
2019-02-28T12:28:56.921Z,2.80
2019-02-28T12:31:27.501Z,3.23
2019-02-28T12:33:58.091Z,3.37
2019-02-28T12:36:28.577Z,2.50
2019-02-28T12:38:59.406Z,2.90
2019-02-28T12:41:32.880Z,2.33
2019-02-28T12:44:03.532Z,3.17
2019-02-28T12:46:34.129Z,2.53
2019-02-28T12:49:04.697Z,3.20
2019-02-28T12:51:36.460Z,2.90
2019-02-28T12:54:07.493Z,2.63
2019-02-28T12:56:37.980Z,2.80
2019-02-28T12:59:10.008Z,3.10
2019-02-28T13:01:40.982Z,2.67
2019-02-28T13:04:11.548Z,2.53
2019-02-28T13:06:42.115Z,3.00
2019-02-28T13:09:13.632Z,3.70
2019-02-28T13:11:45.129Z,2.97
2019-02-28T13:14:15.640Z,2.97
2019-02-28T13:16:46.132Z,2.80
2019-02-28T13:19:20.114Z,3.83
2019-02-28T13:21:48.885Z,3.23
2019-02-28T13:24:19.447Z,3.03
2019-02-28T13:26:50.000Z,3.00
2019-02-28T13:29:22.172Z,3.30
2019-02-28T13:31:52.777Z,3.27
2019-02-28T13:34:25.029Z,4.30
2019-02-28T13:37:02.047Z,3.80
2019-02-28T13:39:31.683Z,3.60
2019-02-28T13:42:02.989Z,3.87
2019-02-28T13:44:36.430Z,3.13
2019-02-28T13:47:09.396Z,3.77
2019-02-28T13:49:38.554Z,4.07
2019-02-28T13:52:09.177Z,3.47
2019-02-28T13:57:28.400Z,2.70
2019-02-28T13:59:58.975Z,2.80
2019-02-28T14:02:31.358Z,3.53
2019-02-28T14:05:03.069Z,2.57
2019-02-28T14:10:24.088Z,2.73
2019-02-28T14:12:57.191Z,3.10
2019-02-28T14:15:30.072Z,2.57
2019-02-28T14:18:00.681Z,3.17
2019-02-28T14:20:31.569Z,2.57
2019-02-28T14:23:02.148Z,3.03
2019-02-28T14:25:32.852Z,2.20
2019-02-28T14:28:03.466Z,2.43
2019-02-28T14:30:34.053Z,2.80
2019-02-28T14:33:04.689Z,2.10
2019-02-28T14:35:38.276Z,3.00
2019-02-28T14:38:07.598Z,3.17
2019-02-28T14:40:38.208Z,2.40
2019-02-28T14:43:08.790Z,2.83
2019-02-28T14:45:42.950Z,2.20
2019-02-28T14:48:12.306Z,2.90
2019-02-28T14:50:42.941Z,2.03
2019-02-28T14:53:14.564Z,2.50
2019-02-28T14:55:45.202Z,2.87
2019-02-28T14:58:15.785Z,2.83
2019-02-28T15:00:46.493Z,2.87
2019-02-28T15:03:18.124Z,3.03
2019-02-28T15:05:48.848Z,3.67
2019-02-28T15:08:19.828Z,2.87
2019-02-28T15:10:50.452Z,2.77
2019-02-28T15:13:21.314Z,2.37
2019-02-28T15:15:53.105Z,2.60
2019-02-28T15:18:24.066Z,2.50
2019-02-28T15:20:54.989Z,2.50
2019-02-28T15:23:25.511Z,2.67
2019-02-28T15:25:56.097Z,2.90
2019-02-28T15:28:26.591Z,2.30
2019-02-28T15:30:57.284Z,3.03
2019-02-28T15:33:30.503Z,2.70
2019-02-28T15:36:00.078Z,2.50
2019-02-28T15:38:32.515Z,2.40
2019-02-28T15:41:03.185Z,3.03
2019-02-28T15:43:33.839Z,3.00
2019-02-28T15:46:04.332Z,4.30
2019-02-28T15:48:35.291Z,3.10
2019-02-28T15:51:05.849Z,2.50
2019-02-28T15:53:36.425Z,3.87
2019-02-28T15:56:13.410Z,2.77
2019-02-28T15:58:41.447Z,3.30
2019-02-28T16:01:11.589Z,3.37
2019-02-28T16:03:42.154Z,2.97
2019-02-28T16:06:16.335Z,3.20
2019-02-28T16:08:46.767Z,3.23
2019-02-28T16:11:17.320Z,3.77
2019-02-28T16:13:47.944Z,4.90
2019-02-28T16:16:21.581Z,3.73
2019-02-28T16:18:50.890Z,3.90
2019-02-28T16:21:21.466Z,3.73
2019-02-28T16:23:52.093Z,4.03
2019-02-28T16:26:22.793Z,3.30
2019-02-28T16:28:53.415Z,4.60
2019-02-28T16:31:24.000Z,3.03
2019-02-28T16:33:56.563Z,3.47
2019-02-28T16:36:26.793Z,4.40
2019-02-28T16:38:57.394Z,3.20
2019-02-28T16:41:27.905Z,3.57
2019-02-28T16:43:58.702Z,2.73
2019-02-28T16:46:30.199Z,2.70
2019-02-28T16:49:00.909Z,3.23
2019-02-28T16:51:31.521Z,3.67
2019-02-28T16:54:02.062Z,4.13
2019-02-28T16:56:32.689Z,3.97
2019-02-28T16:59:03.262Z,3.57
2019-02-28T17:01:34.860Z,3.13
2019-02-28T17:04:05.435Z,3.47
2019-02-28T17:06:36.375Z,4.07
2019-02-28T17:09:30.224Z,3.77
2019-02-28T17:12:07.156Z,3.87
2019-02-28T17:14:37.825Z,3.30
2019-02-28T17:17:15.784Z,4.50
2019-02-28T17:19:46.345Z,5.40
2019-02-28T17:22:16.937Z,3.90
2019-02-28T17:24:47.525Z,4.67
2019-02-28T17:27:25.745Z,4.90
2019-02-28T17:30:07.738Z,4.23
2019-02-28T17:32:42.836Z,5.73
2019-02-28T17:35:15.970Z,5.33
2019-02-28T17:37:50.070Z,3.57
2019-02-28T17:40:27.062Z,3.23
2019-02-28T17:43:03.007Z,4.27
2019-02-28T17:45:37.334Z,4.57
2019-02-28T17:48:37.027Z,4.00
2019-02-28T17:51:40.753Z,3.90
2019-02-28T17:54:29.743Z,3.60
2019-02-28T17:57:26.409Z,3.80
2019-02-28T18:00:32.684Z,3.67
2019-02-28T18:04:01.572Z,3.63
2019-02-28T18:07:13.485Z,3.00
2019-02-28T18:10:11.923Z,3.33
2019-02-28T18:13:12.633Z,12.93
2019-02-28T18:16:23.781Z,3.17
2019-02-28T18:19:43.056Z,3.20
2019-02-28T18:22:33.653Z,4.77
2019-02-28T18:26:06.001Z,4.33
2019-02-28T18:29:11.778Z,7.37
2019-02-28T18:31:42.396Z,5.57
2019-02-28T18:34:33.160Z,21.73
2019-02-28T18:37:03.696Z,5.87
2019-02-28T18:42:23.432Z,6.70
2019-02-28T18:44:54.043Z,6.13
2019-02-28T18:47:24.620Z,37.03
2019-02-28T18:49:55.233Z,15.43
2019-02-28T18:52:25.853Z,4.20
2019-02-28T18:55:05.587Z,6.40
2019-02-28T18:57:31.725Z,7.40
2019-02-28T19:00:02.397Z,7.67
2019-02-28T19:02:34.429Z,10.47
2019-02-28T19:05:06.998Z,7.97
2019-02-28T19:07:37.408Z,8.77
2019-02-28T19:10:08.338Z,10.43
2019-02-28T19:12:39.004Z,8.07
2019-02-28T19:15:09.666Z,8.97
2019-02-28T19:17:40.221Z,10.53
2019-02-28T19:20:10.877Z,9.37
2019-02-28T19:22:41.487Z,10.83
2019-02-28T19:25:12.379Z,10.23
2019-02-28T19:27:42.954Z,10.93
2019-02-28T19:30:13.889Z,11.77
2019-02-28T19:32:44.536Z,13.13
2019-02-28T19:35:15.205Z,10.07
2019-02-28T19:37:45.889Z,8.97
2019-02-28T19:42:58.514Z,11.43
2019-02-28T19:45:29.507Z,12.50
2019-02-28T19:48:00.478Z,12.27
2019-02-28T19:50:31.033Z,10.63
2019-02-28T19:53:01.697Z,9.73
2019-02-28T19:55:32.333Z,11.00
2019-02-28T19:58:03.079Z,13.13
2019-02-28T20:00:33.741Z,11.90
2019-02-28T20:03:04.404Z,10.20
2019-02-28T20:05:34.999Z,10.47
2019-02-28T20:08:05.632Z,8.83
2019-02-28T20:10:36.250Z,10.10
2019-02-28T20:13:06.887Z,9.43
2019-02-28T20:15:39.042Z,9.70
2019-02-28T20:18:09.778Z,9.77
2019-02-28T20:20:40.388Z,12.17
2019-02-28T20:23:11.060Z,10.80
2019-02-28T20:28:30.952Z,9.93
2019-02-28T20:31:01.536Z,10.20
2019-02-28T20:33:33.520Z,10.13
2019-02-28T20:36:04.389Z,10.13
2019-02-28T20:38:35.133Z,9.63
2019-02-28T20:41:05.871Z,11.40
2019-02-28T20:43:36.816Z,10.53
2019-02-28T20:46:07.516Z,10.37
2019-02-28T20:48:38.297Z,11.70
2019-02-28T20:51:09.021Z,11.87
2019-02-28T20:53:39.857Z,11.87
2019-02-28T20:56:10.655Z,11.03
2019-02-28T20:58:41.389Z,10.43
2019-02-28T21:01:12.357Z,11.67
2019-02-28T21:03:46.204Z,12.47
2019-02-28T21:06:18.654Z,10.50
2019-02-28T21:08:49.660Z,10.37
2019-02-28T21:11:22.429Z,8.80
2019-02-28T21:13:53.280Z,9.90
2019-02-28T21:16:26.660Z,7.70
2019-02-28T21:19:01.270Z,7.47
2019-02-28T21:21:32.218Z,7.20
2019-02-28T21:24:02.981Z,11.23
2019-02-28T21:26:34.057Z,10.27
2019-02-28T21:29:04.998Z,10.27
2019-02-28T21:31:40.606Z,8.90
2019-02-28T21:34:11.952Z,11.70
2019-02-28T21:36:43.309Z,9.63
2019-02-28T21:39:19.389Z,10.27
2019-02-28T21:41:52.502Z,10.47
2019-02-28T21:44:25.331Z,10.63
2019-02-28T21:46:57.602Z,10.87
2019-02-28T21:49:30.269Z,12.73
2019-02-28T21:52:01.582Z,12.67
2019-02-28T21:54:34.295Z,9.97
2019-02-28T21:57:08.699Z,14.00
2019-02-28T21:59:39.470Z,13.47
2019-02-28T22:02:10.193Z,11.73
2019-02-28T22:04:41.407Z,10.30
2019-02-28T22:07:12.949Z,10.97
2019-02-28T22:09:44.256Z,10.30
2019-02-28T22:12:14.928Z,10.43
2019-02-28T22:14:45.874Z,10.80
2019-02-28T22:17:16.743Z,10.93
2019-02-28T22:19:47.349Z,11.97
2019-02-28T22:22:18.217Z,10.30
2019-02-28T22:24:48.824Z,9.53
2019-02-28T22:27:19.541Z,10.23
2019-02-28T22:29:50.087Z,13.07
2019-02-28T22:32:32.700Z,13.07
2019-02-28T22:35:27.983Z,12.13
2019-02-28T22:37:58.601Z,13.17
2019-02-28T22:40:29.306Z,12.47
2019-02-28T22:42:59.834Z,13.60
2019-02-28T22:45:30.592Z,16.07
2019-02-28T22:48:01.184Z,14.50
2019-02-28T22:50:32.782Z,16.77
2019-02-28T22:53:03.401Z,16.17
2019-02-28T22:55:35.249Z,18.60
2019-02-28T22:58:09.314Z,19.87
2019-02-28T23:00:52.345Z,16.73
2019-02-28T23:03:24.134Z,19.43
2019-02-28T23:05:54.594Z,19.53
2019-02-28T23:08:25.119Z,18.27
2019-02-28T23:13:38.364Z,18.00
2019-02-28T23:16:08.933Z,19.20
2019-02-28T23:18:39.505Z,19.20
2019-02-28T23:21:10.121Z,19.33
2019-02-28T23:23:40.717Z,18.00
2019-02-28T23:26:15.396Z,18.43
2019-02-28T23:28:56.295Z,16.37
2019-02-28T23:32:14.057Z,18.33
2019-02-28T23:34:50.571Z,19.90
2019-02-28T23:37:21.079Z,18.53
2019-02-28T23:39:51.608Z,18.93
2019-02-28T23:42:22.169Z,21.00
2019-02-28T23:44:52.745Z,19.43
2019-02-28T23:47:23.652Z,20.00
2019-02-28T23:49:54.278Z,21.57
2019-02-28T23:52:24.956Z,18.50
2019-02-28T23:54:55.570Z,19.53
2019-02-28T23:57:26.196Z,19.50
2019-02-28T23:59:57.227Z,17.77
